KPSF/PSF METAR and TAF weather

Enter ICAO airport designator
Station Type Date Time Source
KPSF METAR 2019/12/16 05:54 UTC NOAA

KPSF 160554Z AUTO 29012G23KT 10SM CLR M04/M11 A3005 RMK AO2 PK WND 30027/0508 SLP185 T10441111 11017 21044 51013


Station Type Date Time Source
KPSF Decoded METAR 2019/12/16 05:54 UTC NOAA

PITTSFIELD MUNICIPAL AIRPORT , MA, United States (KPSF) 42-26N 073-17W 355M
Dec 16, 2019 - 12:54 AM EST / 2019.12.16 0554 UTC
Wind: from the WNW (290 degrees) at 14 MPH (12 KT) gusting to 26 MPH (23 KT):0
Visibility: 10 mile(s):0
Sky conditions: clear
Temperature: 24.1 F (-4.4 C)
Windchill: 12 F (-11 C):1
Dew Point: 12.0 F (-11.1 C)
Relative Humidity: 59%
Pressure (altimeter): 30.05 in. Hg (1017 hPa)
Pressure tendency: 0.04 inches (1.3 hPa) higher than three hours ago
ob: KPSF 160554Z AUTO 29012G23KT 10SM CLR M04/M11 A3005 RMK AO2 PK WND 30027/0508 SLP185 T10441111 11017 21044 51013
cycle: 6

Station Type Date Time Source
KPSF TAF 2019/12/16 06:27 UTC NOAA

TAF KPSF 160525Z 1606/1706 29012G22KT P6SM SCT035
FM161100 29011KT P6SM SCT150
FM161500 27007KT P6SM BKN090
FM170500 VRB03KT P6SM OVC040 PROB30 1705/1706 2SM -SN OVC025

Example: see airport list